sensor_id;sensor_type;location;lat;lon;timestamp;pressure;altitude;pressure_sealevel;temperature;humidity
79617;BME280;69097;52.132;5.422;2024-02-15T00:00:16;101802.38;;;11.32;100.00
79617;BME280;69097;52.132;5.422;2024-02-15T00:02:43;101797.94;;;11.31;100.00
79617;BME280;69097;52.132;5.422;2024-02-15T00:05:13;101806.38;;;11.31;100.00
79617;BME280;69097;52.132;5.422;2024-02-15T00:07:42;101793.94;;;11.32;100.00
79617;BME280;69097;52.132;5.422;2024-02-15T00:10:10;101807.59;;;11.30;100.00
79617;BME280;69097;52.132;5.422;2024-02-15T00:12:36;101801.19;;;11.30;100.00
79617;BME280;69097;52.132;5.422;2024-02-15T00:15:03;101797.59;;;11.29;100.00
79617;BME280;69097;52.132;5.422;2024-02-15T00:17:30;101800.75;;;11.31;100.00
79617;BME280;69097;52.132;5.422;2024-02-15T00:19:57;101791.97;;;11.29;100.00
79617;BME280;69097;52.132;5.422;2024-02-15T00:22:23;101802.41;;;11.29;100.00
79617;BME280;69097;52.132;5.422;2024-02-15T00:24:50;101795.97;;;11.28;100.00
79617;BME280;69097;52.132;5.422;2024-02-15T00:27:17;101794.41;;;11.27;100.00
79617;BME280;69097;52.132;5.422;2024-02-15T00:29:43;101802.81;;;11.27;100.00
79617;BME280;69097;52.132;5.422;2024-02-15T00:32:10;101810.03;;;11.28;100.00
79617;BME280;69097;52.132;5.422;2024-02-15T00:34:37;101795.19;;;11.28;100.00
79617;BME280;69097;52.132;5.422;2024-02-15T00:37:08;101809.25;;;11.28;100.00
79617;BME280;69097;52.132;5.422;2024-02-15T00:39:34;101805.63;;;11.27;100.00
79617;BME280;69097;52.132;5.422;2024-02-15T00:42:01;101797.19;;;11.27;100.00
79617;BME280;69097;52.132;5.422;2024-02-15T00:44:27;101793.16;;;11.28;100.00
79617;BME280;69097;52.132;5.422;2024-02-15T00:46:54;101804.41;;;11.28;100.00
79617;BME280;69097;52.132;5.422;2024-02-15T00:49:22;101794.41;;;11.27;100.00
79617;BME280;69097;52.132;5.422;2024-02-15T00:51:49;101795.97;;;11.28;100.00
79617;BME280;69097;52.132;5.422;2024-02-15T00:54:16;101789.59;;;11.28;100.00
79617;BME280;69097;52.132;5.422;2024-02-15T00:56:43;101785.56;;;11.29;100.00
79617;BME280;69097;52.132;5.422;2024-02-15T00:59:09;101786.78;;;11.28;100.00
79617;BME280;69097;52.132;5.422;2024-02-15T01:01:36;101787.56;;;11.28;100.00
79617;BME280;69097;52.132;5.422;2024-02-15T01:04:07;101787.56;;;11.28;100.00
79617;BME280;69097;52.132;5.422;2024-02-15T01:06:34;101781.94;;;11.28;100.00
79617;BME280;69097;52.132;5.422;2024-02-15T01:09:00;101777.13;;;11.29;100.00
79617;BME280;69097;52.132;5.422;2024-02-15T01:11:30;101790.34;;;11.28;100.00
79617;BME280;69097;52.132;5.422;2024-02-15T01:14:01;101783.16;;;11.27;100.00
79617;BME280;69097;52.132;5.422;2024-02-15T01:16:27;101784.75;;;11.28;100.00
79617;BME280;69097;52.132;5.422;2024-02-15T01:18:54;101779.13;;;11.28;100.00
79617;BME280;69097;52.132;5.422;2024-02-15T01:21:21;101785.97;;;11.27;100.00
79617;BME280;69097;52.132;5.422;2024-02-15T01:23:48;101785.16;;;11.27;100.00
79617;BME280;69097;52.132;5.422;2024-02-15T01:26:15;101776.31;;;11.28;100.00
79617;BME280;69097;52.132;5.422;2024-02-15T01:28:41;101779.53;;;11.27;100.00
79617;BME280;69097;52.132;5.422;2024-02-15T01:31:10;101770.69;;;11.28;100.00
79617;BME280;69097;52.132;5.422;2024-02-15T01:33:37;101769.13;;;11.27;100.00
79617;BME280;69097;52.132;5.422;2024-02-15T01:36:04;101771.91;;;11.27;100.00
79617;BME280;69097;52.132;5.422;2024-02-15T01:38:31;101774.72;;;11.27;100.00
79617;BME280;69097;52.132;5.422;2024-02-15T01:40:59;101775.53;;;11.28;100.00
79617;BME280;69097;52.132;5.422;2024-02-15T01:43:25;101776.72;;;11.27;100.00
79617;BME280;69097;52.132;5.422;2024-02-15T01:45:52;101771.91;;;11.27;100.00
79617;BME280;69097;52.132;5.422;2024-02-15T01:48:18;101775.94;;;11.26;100.00
79617;BME280;69097;52.132;5.422;2024-02-15T01:50:45;101773.13;;;11.26;100.00
79617;BME280;69097;52.132;5.422;2024-02-15T01:53:12;101771.91;;;11.27;100.00
79617;BME280;69097;52.132;5.422;2024-02-15T01:55:39;101780.34;;;11.27;100.00
79617;BME280;69097;52.132;5.422;2024-02-15T01:58:06;101778.34;;;11.28;100.00
79617;BME280;69097;52.132;5.422;2024-02-15T02:00:33;101769.50;;;11.29;100.00
79617;BME280;69097;52.132;5.422;2024-02-15T02:03:01;101763.88;;;11.29;100.00
79617;BME280;69097;52.132;5.422;2024-02-15T02:05:30;101758.28;;;11.29;100.00
79617;BME280;69097;52.132;5.422;2024-02-15T02:07:58;101750.63;;;11.30;100.00
79617;BME280;69097;52.132;5.422;2024-02-15T02:10:28;101757.03;;;11.30;100.00
79617;BME280;69097;52.132;5.422;2024-02-15T02:13:00;101755.47;;;11.29;100.00
79617;BME280;69097;52.132;5.422;2024-02-15T02:15:29;101760.28;;;11.29;100.00
79617;BME280;69097;52.132;5.422;2024-02-15T02:18:00;101756.66;;;11.28;100.00
79617;BME280;69097;52.132;5.422;2024-02-15T02:20:27;101749.84;;;11.29;100.00
79617;BME280;69097;52.132;5.422;2024-02-15T02:22:54;101745.00;;;11.30;100.00
79617;BME280;69097;52.132;5.422;2024-02-15T02:25:24;101749.03;;;11.29;100.00
79617;BME280;69097;52.132;5.422;2024-02-15T02:27:53;101743.41;;;11.29;100.00
79617;BME280;69097;52.132;5.422;2024-02-15T02:30:20;101746.66;;;11.27;100.00
79617;BME280;69097;52.132;5.422;2024-02-15T02:32:48;101743.84;;;11.27;100.00
79617;BME280;69097;52.132;5.422;2024-02-15T02:35:15;101746.66;;;11.27;100.00
79617;BME280;69097;52.132;5.422;2024-02-15T02:37:43;101732.22;;;11.25;100.00
79617;BME280;69097;52.132;5.422;2024-02-15T02:40:11;101734.22;;;11.25;100.00
79617;BME280;69097;52.132;5.422;2024-02-15T02:42:52;101731.06;;;11.23;100.00
79617;BME280;69097;52.132;5.422;2024-02-15T02:45:19;101737.88;;;11.22;100.00
79617;BME280;69097;52.132;5.422;2024-02-15T02:47:50;101738.28;;;11.20;100.00
79617;BME280;69097;52.132;5.422;2024-02-15T02:50:23;101743.09;;;11.19;100.00
79617;BME280;69097;52.132;5.422;2024-02-15T02:52:52;101744.31;;;11.18;100.00
79617;BME280;69097;52.132;5.422;2024-02-15T02:55:23;101742.31;;;11.19;100.00
79617;BME280;69097;52.132;5.422;2024-02-15T02:57:54;101736.69;;;11.19;100.00
79617;BME280;69097;52.132;5.422;2024-02-15T03:00:22;101728.28;;;11.19;100.00
79617;BME280;69097;52.132;5.422;2024-02-15T03:03:03;101735.91;;;11.18;100.00
79617;BME280;69097;52.132;5.422;2024-02-15T03:05:41;101728.28;;;11.19;100.00
79617;BME280;69097;52.132;5.422;2024-02-15T03:08:14;101733.91;;;11.19;100.00
79617;BME280;69097;52.132;5.422;2024-02-15T03:11:08;101727.47;;;11.18;100.00
79617;BME280;69097;52.132;5.422;2024-02-15T03:13:52;101739.50;;;11.19;100.00
79617;BME280;69097;52.132;5.422;2024-02-15T03:16:35;101733.91;;;11.19;100.00
79617;BME280;69097;52.132;5.422;2024-02-15T03:19:11;101723.84;;;11.18;100.00
79617;BME280;69097;52.132;5.422;2024-02-15T03:22:00;101727.88;;;11.17;100.00
79617;BME280;69097;52.132;5.422;2024-02-15T03:24:36;101724.66;;;11.18;100.00
79617;BME280;69097;52.132;5.422;2024-02-15T03:27:25;101725.84;;;11.17;100.00
79617;BME280;69097;52.132;5.422;2024-02-15T03:29:57;101723.84;;;11.18;100.00
79617;BME280;69097;52.132;5.422;2024-02-15T03:32:30;101723.84;;;11.18;100.00
79617;BME280;69097;52.132;5.422;2024-02-15T03:34:59;101721.03;;;11.18;100.00
79617;BME280;69097;52.132;5.422;2024-02-15T03:37:49;101720.25;;;11.17;100.00
79617;BME280;69097;52.132;5.422;2024-02-15T03:40:58;101707.44;;;11.16;100.00
79617;BME280;69097;52.132;5.422;2024-02-15T03:43:41;101717.06;;;11.15;100.00
79617;BME280;69097;52.132;5.422;2024-02-15T03:46:18;101717.50;;;11.14;100.00
79617;BME280;69097;52.132;5.422;2024-02-15T03:48:50;101713.88;;;11.13;100.00
79617;BME280;69097;52.132;5.422;2024-02-15T03:52:17;101711.50;;;11.12;100.00
79617;BME280;69097;52.132;5.422;2024-02-15T03:55:27;101722.72;;;11.12;100.00
79617;BME280;69097;52.132;5.422;2024-02-15T03:57:53;101726.72;;;11.11;100.00
79617;BME280;69097;52.132;5.422;2024-02-15T04:00:22;101713.91;;;11.10;100.00
79617;BME280;69097;52.132;5.422;2024-02-15T04:02:51;101720.34;;;11.10;100.00
79617;BME280;69097;52.132;5.422;2024-02-15T04:05:17;101707.50;;;11.09;100.00
79617;BME280;69097;52.132;5.422;2024-02-15T04:07:45;101705.09;;;11.08;100.00
79617;BME280;69097;52.132;5.422;2024-02-15T04:10:12;101705.91;;;11.08;100.00
79617;BME280;69097;52.132;5.422;2024-02-15T04:12:39;101711.53;;;11.08;100.00
79617;BME280;69097;52.132;5.422;2024-02-15T04:15:08;101706.72;;;11.09;100.00
79617;BME280;69097;52.132;5.422;2024-02-15T04:17:39;101704.69;;;11.09;100.00
79617;BME280;69097;52.132;5.422;2024-02-15T04:20:07;101711.09;;;11.10;100.00
79617;BME280;69097;52.132;5.422;2024-02-15T04:22:35;101705.50;;;11.10;100.00
79617;BME280;69097;52.132;5.422;2024-02-15T04:25:09;101708.28;;;11.10;100.00
79617;BME280;69097;52.132;5.422;2024-02-15T04:27:45;101707.50;;;11.09;100.00
79617;BME280;69097;52.132;5.422;2024-02-15T04:30:12;101697.88;;;11.10;100.00
79617;BME280;69097;52.132;5.422;2024-02-15T04:32:39;101697.06;;;11.10;100.00
79617;BME280;69097;52.132;5.422;2024-02-15T04:35:06;101702.25;;;11.11;100.00
79617;BME280;69097;52.132;5.422;2024-02-15T04:37:36;101703.06;;;11.12;100.00
79617;BME280;69097;52.132;5.422;2024-02-15T04:40:04;101705.06;;;11.11;100.00
79617;BME280;69097;52.132;5.422;2024-02-15T04:42:38;101699.44;;;11.11;100.00
79617;BME280;69097;52.132;5.422;2024-02-15T04:45:08;101701.03;;;11.12;100.00
79617;BME280;69097;52.132;5.422;2024-02-15T04:47:36;101702.66;;;11.13;100.00
79617;BME280;69097;52.132;5.422;2024-02-15T04:50:03;101698.63;;;11.14;100.00
79617;BME280;69097;52.132;5.422;2024-02-15T04:52:33;101692.22;;;11.14;100.00
79617;BME280;69097;52.132;5.422;2024-02-15T04:55:00;101693.00;;;11.14;100.00
79617;BME280;69097;52.132;5.422;2024-02-15T04:57:27;101693.81;;;11.15;100.00
79617;BME280;69097;52.132;5.422;2024-02-15T04:59:57;101686.59;;;11.14;100.00
79617;BME280;69097;52.132;5.422;2024-02-15T05:02:28;101685.00;;;11.13;100.00
79617;BME280;69097;52.132;5.422;2024-02-15T05:04:59;101682.56;;;11.15;100.00
79617;BME280;69097;52.132;5.422;2024-02-15T05:07:26;101682.16;;;11.16;100.00
79617;BME280;69097;52.132;5.422;2024-02-15T05:09:53;101678.53;;;11.16;100.00
79617;BME280;69097;52.132;5.422;2024-02-15T05:12:24;101678.53;;;11.16;100.00
79617;BME280;69097;52.132;5.422;2024-02-15T05:14:51;101682.16;;;11.16;100.00
79617;BME280;69097;52.132;5.422;2024-02-15T05:17:22;101682.97;;;11.17;100.00
79617;BME280;69097;52.132;5.422;2024-02-15T05:19:49;101692.97;;;11.18;100.00
79617;BME280;69097;52.132;5.422;2024-02-15T05:22:18;101694.56;;;11.19;100.00
79617;BME280;69097;52.132;5.422;2024-02-15T05:24:46;101691.78;;;11.19;100.00
79617;BME280;69097;52.132;5.422;2024-02-15T05:27:13;101694.56;;;11.19;100.00
79617;BME280;69097;52.132;5.422;2024-02-15T05:29:40;101695.34;;;11.19;100.00
79617;BME280;69097;52.132;5.422;2024-02-15T05:32:10;101689.31;;;11.21;100.00
79617;BME280;69097;52.132;5.422;2024-02-15T05:34:37;101684.94;;;11.20;100.00
79617;BME280;69097;52.132;5.422;2024-02-15T05:37:07;101687.31;;;11.22;100.00
79617;BME280;69097;52.132;5.422;2024-02-15T05:39:35;101676.09;;;11.22;100.00
79617;BME280;69097;52.132;5.422;2024-02-15T05:42:04;101664.03;;;11.21;100.00
79617;BME280;69097;52.132;5.422;2024-02-15T05:44:32;101655.22;;;11.23;100.00
79617;BME280;69097;52.132;5.422;2024-02-15T05:46:59;101631.94;;;11.22;100.00
79617;BME280;69097;52.132;5.422;2024-02-15T05:49:27;101610.28;;;11.23;100.00
79617;BME280;69097;52.132;5.422;2024-02-15T05:51:54;101609.47;;;11.22;100.00
79617;BME280;69097;52.132;5.422;2024-02-15T05:54:21;101601.88;;;11.23;100.00
79617;BME280;69097;52.132;5.422;2024-02-15T05:56:51;101617.50;;;11.24;100.00
79617;BME280;69097;52.132;5.422;2024-02-15T05:59:20;101623.91;;;11.24;100.00
79617;BME280;69097;52.132;5.422;2024-02-15T06:01:47;101626.72;;;11.24;100.00
79617;BME280;69097;52.132;5.422;2024-02-15T06:04:18;101623.91;;;11.24;100.00
79617;BME280;69097;52.132;5.422;2024-02-15T06:06:45;101622.69;;;11.25;100.00
79617;BME280;69097;52.132;5.422;2024-02-15T06:09:16;101627.50;;;11.25;100.00
79617;BME280;69097;52.132;5.422;2024-02-15T06:11:43;101636.72;;;11.25;100.00
79617;BME280;69097;52.132;5.422;2024-02-15T06:14:11;101638.31;;;11.26;100.00
79617;BME280;69097;52.132;5.422;2024-02-15T06:16:44;101625.06;;;11.27;100.00
79617;BME280;69097;52.132;5.422;2024-02-15T06:19:11;101628.31;;;11.25;100.00
79617;BME280;69097;52.132;5.422;2024-02-15T06:21:37;101625.50;;;11.25;100.00
79617;BME280;69097;52.132;5.422;2024-02-15T06:24:06;101637.53;;;11.26;100.00
79617;BME280;69097;52.132;5.422;2024-02-15T06:26:32;101641.13;;;11.26;100.00
79617;BME280;69097;52.132;5.422;2024-02-15T06:29:00;101643.94;;;11.26;100.00
79617;BME280;69097;52.132;5.422;2024-02-15T06:31:45;101642.34;;;11.25;100.00
79617;BME280;69097;52.132;5.422;2024-02-15T06:34:30;101647.97;;;11.25;100.00
79617;BME280;69097;52.132;5.422;2024-02-15T06:37:35;101649.53;;;11.26;100.00
79617;BME280;69097;52.132;5.422;2024-02-15T06:40:20;101636.72;;;11.25;100.00
79617;BME280;69097;52.132;5.422;2024-02-15T06:42:47;101639.53;;;11.25;100.00
79617;BME280;69097;52.132;5.422;2024-02-15T06:45:14;101632.69;;;11.26;100.00
79617;BME280;69097;52.132;5.422;2024-02-15T06:47:43;101624.25;;;11.26;100.00
79617;BME280;69097;52.132;5.422;2024-02-15T06:50:11;101627.06;;;11.26;100.00
79617;BME280;69097;52.132;5.422;2024-02-15T06:52:38;101623.06;;;11.27;100.00
79617;BME280;69097;52.132;5.422;2024-02-15T06:55:08;101625.88;;;11.27;100.00
79617;BME280;69097;52.132;5.422;2024-02-15T06:57:35;101623.06;;;11.27;100.00
79617;BME280;69097;52.132;5.422;2024-02-15T07:00:04;101606.22;;;11.27;100.00
79617;BME280;69097;52.132;5.422;2024-02-15T07:02:33;101614.63;;;11.27;100.00
79617;BME280;69097;52.132;5.422;2024-02-15T07:05:00;101628.69;;;11.27;100.00
79617;BME280;69097;52.132;5.422;2024-02-15T07:07:27;101633.88;;;11.29;100.00
79617;BME280;69097;52.132;5.422;2024-02-15T07:09:54;101629.06;;;11.29;100.00
79617;BME280;69097;52.132;5.422;2024-02-15T07:12:20;101632.66;;;11.30;100.00
79617;BME280;69097;52.132;5.422;2024-02-15T07:14:48;101637.50;;;11.29;100.00
79617;BME280;69097;52.132;5.422;2024-02-15T07:17:14;101649.50;;;11.30;100.00
79617;BME280;69097;52.132;5.422;2024-02-15T07:19:44;101645.50;;;11.31;100.00
79617;BME280;69097;52.132;5.422;2024-02-15T07:22:11;101643.47;;;11.31;100.00
79617;BME280;69097;52.132;5.422;2024-02-15T07:24:38;101633.84;;;11.32;100.00
79617;BME280;69097;52.132;5.422;2024-02-15T07:27:05;101626.63;;;11.31;100.00
79617;BME280;69097;52.132;5.422;2024-02-15T07:29:31;101642.28;;;11.32;100.00
79617;BME280;69097;52.132;5.422;2024-02-15T07:32:01;101652.28;;;11.33;100.00
79617;BME280;69097;52.132;5.422;2024-02-15T07:34:31;101660.69;;;11.33;100.00
79617;BME280;69097;52.132;5.422;2024-02-15T07:36:57;101671.94;;;11.33;100.00
79617;BME280;69097;52.132;5.422;2024-02-15T07:39:25;101675.97;;;11.32;100.00
79617;BME280;69097;52.132;5.422;2024-02-15T07:41:54;101682.41;;;11.33;100.00
79617;BME280;69097;52.132;5.422;2024-02-15T07:44:21;101676.78;;;11.33;100.00
79617;BME280;69097;52.132;5.422;2024-02-15T07:46:50;101655.09;;;11.33;100.00
79617;BME280;69097;52.132;5.422;2024-02-15T07:49:17;101654.31;;;11.33;100.00
79617;BME280;69097;52.132;5.422;2024-02-15T07:51:46;101676.34;;;11.34;100.00
79617;BME280;69097;52.132;5.422;2024-02-15T07:54:19;101660.69;;;11.33;100.00
79617;BME280;69097;52.132;5.422;2024-02-15T07:56:47;101659.94;;;11.33;100.00
79617;BME280;69097;52.132;5.422;2024-02-15T07:59:18;101665.53;;;11.33;100.00
79617;BME280;69097;52.132;5.422;2024-02-15T08:01:45;101679.16;;;11.34;100.00
79617;BME280;69097;52.132;5.422;2024-02-15T08:04:14;101673.16;;;11.32;100.00
79617;BME280;69097;52.132;5.422;2024-02-15T08:06:43;101678.34;;;11.34;100.00
79617;BME280;69097;52.132;5.422;2024-02-15T08:09:10;101655.09;;;11.33;100.00
79617;BME280;69097;52.132;5.422;2024-02-15T08:11:40;101627.81;;;11.34;100.00
79617;BME280;69097;52.132;5.422;2024-02-15T08:14:07;101631.84;;;11.33;100.00
79617;BME280;69097;52.132;5.422;2024-02-15T08:16:39;101639.47;;;11.32;100.00
79617;BME280;69097;52.132;5.422;2024-02-15T08:19:07;101642.28;;;11.32;100.00
79617;BME280;69097;52.132;5.422;2024-02-15T08:21:34;101640.25;;;11.33;100.00
79617;BME280;69097;52.132;5.422;2024-02-15T08:24:03;101629.81;;;11.33;100.00
79617;BME280;69097;52.132;5.422;2024-02-15T08:26:33;101634.66;;;11.33;100.00
79617;BME280;69097;52.132;5.422;2024-02-15T08:29:02;101631.41;;;11.34;100.00
79617;BME280;69097;52.132;5.422;2024-02-15T08:31:32;101643.44;;;11.35;100.00
79617;BME280;69097;52.132;5.422;2024-02-15T08:34:01;101646.25;;;11.35;100.00
79617;BME280;69097;52.132;5.422;2024-02-15T08:36:29;101650.66;;;11.36;100.00
79617;BME280;69097;52.132;5.422;2024-02-15T08:38:57;101655.47;;;11.35;100.00
79617;BME280;69097;52.132;5.422;2024-02-15T08:41:23;101659.09;;;11.36;100.00
79617;BME280;69097;52.132;5.422;2024-02-15T08:43:53;101631.78;;;11.36;100.00
79617;BME280;69097;52.132;5.422;2024-02-15T08:46:19;101630.56;;;11.37;100.00
79617;BME280;69097;52.132;5.422;2024-02-15T08:48:47;101627.34;;;11.39;100.00
79617;BME280;69097;52.132;5.422;2024-02-15T08:51:14;101622.09;;;11.41;100.00
79617;BME280;69097;52.132;5.422;2024-02-15T08:53:43;101617.25;;;11.41;100.00
79617;BME280;69097;52.132;5.422;2024-02-15T08:56:09;101613.25;;;11.42;100.00
79617;BME280;69097;52.132;5.422;2024-02-15T08:58:36;101610.03;;;11.44;100.00
79617;BME280;69097;52.132;5.422;2024-02-15T09:01:04;101605.19;;;11.44;100.00
79617;BME280;69097;52.132;5.422;2024-02-15T09:03:31;101592.31;;;11.47;100.00
79617;BME280;69097;52.132;5.422;2024-02-15T09:05:58;101598.75;;;11.47;100.00
79617;BME280;69097;52.132;5.422;2024-02-15T09:08:29;101600.31;;;11.48;100.00
79617;BME280;69097;52.132;5.422;2024-02-15T09:10:56;101617.97;;;11.49;100.00
79617;BME280;69097;52.132;5.422;2024-02-15T09:13:24;101618.78;;;11.49;100.00
79617;BME280;69097;52.132;5.422;2024-02-15T09:15:51;101618.78;;;11.49;100.00
79617;BME280;69097;52.132;5.422;2024-02-15T09:18:17;101618.78;;;11.49;100.00
79617;BME280;69097;52.132;5.422;2024-02-15T09:20:46;101614.75;;;11.50;100.00
79617;BME280;69097;52.132;5.422;2024-02-15T09:23:15;101619.16;;;11.51;100.00
79617;BME280;69097;52.132;5.422;2024-02-15T09:25:42;101619.16;;;11.51;100.00
79617;BME280;69097;52.132;5.422;2024-02-15T09:28:11;101622.75;;;11.52;100.00
79617;BME280;69097;52.132;5.422;2024-02-15T09:30:40;101615.13;;;11.52;100.00
79617;BME280;69097;52.132;5.422;2024-02-15T09:33:06;101615.94;;;11.53;100.00
79617;BME280;69097;52.132;5.422;2024-02-15T09:35:33;101609.88;;;11.54;100.00
79617;BME280;69097;52.132;5.422;2024-02-15T09:37:59;101609.47;;;11.56;100.00
79617;BME280;69097;52.132;5.422;2024-02-15T09:40:26;101615.88;;;11.56;100.00
79617;BME280;69097;52.132;5.422;2024-02-15T09:42:55;101601.84;;;11.56;100.00
79617;BME280;69097;52.132;5.422;2024-02-15T09:45:22;101617.47;;;11.57;100.00
79617;BME280;69097;52.132;5.422;2024-02-15T09:47:51;101617.84;;;11.59;100.00
79617;BME280;69097;52.132;5.422;2024-02-15T09:50:19;101615.44;;;11.61;100.00
79617;BME280;69097;52.132;5.422;2024-02-15T09:52:52;101618.59;;;11.63;100.00
79617;BME280;69097;52.132;5.422;2024-02-15T09:55:20;101621.81;;;11.65;100.00
79617;BME280;69097;52.132;5.422;2024-02-15T09:57:50;101619.38;;;11.67;100.00
79617;BME280;69097;52.132;5.422;2024-02-15T10:00:17;101618.56;;;11.67;100.00
79617;BME280;69097;52.132;5.422;2024-02-15T10:02:49;101618.16;;;11.68;100.00
79617;BME280;69097;52.132;5.422;2024-02-15T10:05:17;101614.13;;;11.69;100.00
79617;BME280;69097;52.132;5.422;2024-02-15T10:07:45;101624.16;;;11.70;100.00
79617;BME280;69097;52.132;5.422;2024-02-15T10:12:49;101620.94;;;11.68;100.00
79617;BME280;69097;52.132;5.422;2024-02-15T10:15:34;101635.00;;;11.68;100.00
79617;BME280;69097;52.132;5.422;2024-02-15T10:18:09;101632.19;;;11.68;100.00
79617;BME280;69097;52.132;5.422;2024-02-15T10:20:39;101626.94;;;11.70;100.00
79617;BME280;69097;52.132;5.422;2024-02-15T10:25:36;101619.28;;;11.74;100.00
79617;BME280;69097;52.132;5.422;2024-02-15T10:28:10;101619.25;;;11.78;100.00
79617;BME280;69097;52.132;5.422;2024-02-15T10:30:41;101617.59;;;11.80;100.00
79617;BME280;69097;52.132;5.422;2024-02-15T10:33:10;101619.19;;;11.81;100.00
79617;BME280;69097;52.132;5.422;2024-02-15T10:35:44;101617.53;;;11.84;100.00
79617;BME280;69097;52.132;5.422;2024-02-15T10:38:11;101618.34;;;11.84;100.00
79617;BME280;69097;52.132;5.422;2024-02-15T10:40:42;101619.91;;;11.85;100.00
79617;BME280;69097;52.132;5.422;2024-02-15T10:43:10;101619.91;;;11.85;100.00
79617;BME280;69097;52.132;5.422;2024-02-15T10:45:40;101613.44;;;11.88;100.00
79617;BME280;69097;52.132;5.422;2024-02-15T10:48:08;101617.44;;;11.91;100.00
79617;BME280;69097;52.132;5.422;2024-02-15T10:50:35;101612.56;;;11.95;100.00
79617;BME280;69097;52.132;5.422;2024-02-15T10:53:30;101606.91;;;11.98;100.00
79617;BME280;69097;52.132;5.422;2024-02-15T10:58:33;101606.81;;;12.02;100.00
79617;BME280;69097;52.132;5.422;2024-02-15T11:01:06;101606.75;;;12.05;100.00
79617;BME280;69097;52.132;5.422;2024-02-15T11:03:36;101600.31;;;12.08;100.00
79617;BME280;69097;52.132;5.422;2024-02-15T11:06:09;101597.78;;;12.14;100.00
79617;BME280;69097;52.132;5.422;2024-02-15T11:08:37;101604.59;;;12.16;100.00
79617;BME280;69097;52.132;5.422;2024-02-15T11:11:04;101598.91;;;12.20;100.00
79617;BME280;69097;52.132;5.422;2024-02-15T11:13:31;101598.06;;;12.23;100.00
79617;BME280;69097;52.132;5.422;2024-02-15T11:15:58;101599.22;;;12.25;100.00
79617;BME280;69097;52.132;5.422;2024-02-15T11:18:45;101592.75;;;12.28;100.00
79617;BME280;69097;52.132;5.422;2024-02-15T11:21:13;101589.50;;;12.30;100.00
79617;BME280;69097;52.132;5.422;2024-02-15T11:23:40;101595.56;;;12.28;100.00
79617;BME280;69097;52.132;5.422;2024-02-15T11:26:43;101589.50;;;12.30;100.00
79617;BME280;69097;52.132;5.422;2024-02-15T11:29:48;101595.91;;;12.30;100.00
79617;BME280;69097;52.132;5.422;2024-02-15T11:35:12;101580.22;;;12.33;100.00
79617;BME280;69097;52.132;5.422;2024-02-15T11:43:08;101575.34;;;12.37;100.00
79617;BME280;69097;52.132;5.422;2024-02-15T11:45:36;101575.69;;;12.39;100.00
79617;BME280;69097;52.132;5.422;2024-02-15T11:48:11;101565.22;;;12.39;100.00
79617;BME280;69097;52.132;5.422;2024-02-15T11:50:39;101580.91;;;12.41;100.00
79617;BME280;69097;52.132;5.422;2024-02-15T11:53:08;101560.34;;;12.44;100.00
79617;BME280;69097;52.132;5.422;2024-02-15T11:55:37;101564.72;;;12.45;100.00
79617;BME280;69097;52.132;5.422;2024-02-15T11:58:05;101563.09;;;12.47;100.00
79617;BME280;69097;52.132;5.422;2024-02-15T12:00:43;101562.66;;;12.49;100.00
79617;BME280;69097;52.132;5.422;2024-02-15T12:03:28;101561.88;;;12.48;100.00
79617;BME280;69097;52.132;5.422;2024-02-15T12:06:30;101557.03;;;12.49;100.00
79617;BME280;69097;52.132;5.422;2024-02-15T12:09:18;101557.03;;;12.49;100.00
79617;BME280;69097;52.132;5.422;2024-02-15T12:12:05;101555.44;;;12.48;100.00
79617;BME280;69097;52.132;5.422;2024-02-15T12:14:58;101554.22;;;12.49;100.00
79617;BME280;69097;52.132;5.422;2024-02-15T12:17:43;101548.97;;;12.51;100.00
79617;BME280;69097;52.132;5.422;2024-02-15T12:20:28;101546.06;;;12.54;100.00
79617;BME280;69097;52.132;5.422;2024-02-15T12:22:55;101541.59;;;12.57;100.00
79617;BME280;69097;52.132;5.422;2024-02-15T12:25:21;101527.91;;;12.59;100.00
79617;BME280;69097;52.132;5.422;2024-02-15T12:27:56;101535.47;;;12.62;100.00
79617;BME280;69097;52.132;5.422;2024-02-15T12:30:22;101527.41;;;12.64;100.00
79617;BME280;69097;52.132;5.422;2024-02-15T12:32:52;101522.47;;;12.68;100.00
79617;BME280;69097;52.132;5.422;2024-02-15T12:35:20;101512.41;;;12.70;100.00
79617;BME280;69097;52.132;5.422;2024-02-15T12:37:47;101508.72;;;12.73;100.00
79617;BME280;69097;52.132;5.422;2024-02-15T12:40:17;101506.63;;;12.77;100.00
79617;BME280;69097;52.132;5.422;2024-02-15T12:42:44;101509.00;;;12.79;100.00
79617;BME280;69097;52.132;5.422;2024-02-15T12:45:18;101500.06;;;12.84;100.00
79617;BME280;69097;52.132;5.422;2024-02-15T12:47:52;101508.81;;;12.89;100.00
79617;BME280;69097;52.132;5.422;2024-02-15T12:50:29;101495.00;;;12.95;100.00
79617;BME280;69097;52.132;5.422;2024-02-15T12:52:56;101500.13;;;13.00;100.00
79617;BME280;69097;52.132;5.422;2024-02-15T12:55:30;101499.22;;;13.06;100.00
79617;BME280;69097;52.132;5.422;2024-02-15T12:58:04;101497.03;;;13.14;100.00
79617;BME280;69097;52.132;5.422;2024-02-15T13:00:36;101485.56;;;13.24;100.00
79617;BME280;69097;52.132;5.422;2024-02-15T13:03:06;101487.78;;;13.33;100.00
79617;BME280;69097;52.132;5.422;2024-02-15T13:05:38;101489.56;;;13.43;100.00
79617;BME280;69097;52.132;5.422;2024-02-15T13:08:05;101486.59;;;13.50;100.00
79617;BME280;69097;52.132;5.422;2024-02-15T13:10:36;101477.25;;;13.53;100.00
79617;BME280;69097;52.132;5.422;2024-02-15T13:13:03;101477.25;;;13.53;100.00